createdAt,value
2019-03-19T00:00:21.346Z,99.90
2019-03-19T00:02:49.038Z,99.90
2019-03-19T00:05:17.714Z,99.90
2019-03-19T00:07:45.815Z,99.90
2019-03-19T00:10:13.945Z,99.90
2019-03-19T00:12:41.869Z,99.90
2019-03-19T00:15:09.468Z,99.90
2019-03-19T00:17:37.004Z,99.90
2019-03-19T00:20:05.279Z,99.90
2019-03-19T00:22:34.027Z,99.90
2019-03-19T00:25:01.536Z,99.90
2019-03-19T00:27:29.478Z,99.90
2019-03-19T00:29:58.811Z,99.90
2019-03-19T00:32:28.315Z,99.90
2019-03-19T00:34:57.297Z,99.90
2019-03-19T00:37:26.873Z,99.90
2019-03-19T00:39:57.014Z,99.90
2019-03-19T00:42:24.655Z,99.90
2019-03-19T00:44:52.536Z,99.90
2019-03-19T00:47:20.659Z,99.90
2019-03-19T00:49:48.898Z,99.90
2019-03-19T00:52:16.650Z,99.90
2019-03-19T00:54:44.891Z,99.90
2019-03-19T00:57:13.965Z,99.90
2019-03-19T00:59:42.279Z,99.90
2019-03-19T01:02:10.271Z,99.90
2019-03-19T01:04:38.137Z,99.90
2019-03-19T01:07:06.624Z,99.90
2019-03-19T01:09:36.753Z,99.90
2019-03-19T01:12:05.428Z,99.90
2019-03-19T01:14:33.450Z,99.90
2019-03-19T01:17:03.326Z,99.90
2019-03-19T01:19:31.197Z,99.90
2019-03-19T01:21:58.806Z,99.90
2019-03-19T01:24:29.491Z,99.90
2019-03-19T01:26:57.540Z,99.90
2019-03-19T01:29:27.062Z,99.90
2019-03-19T01:31:55.579Z,99.90
2019-03-19T01:34:24.035Z,99.90
2019-03-19T01:36:51.856Z,99.90
2019-03-19T01:39:20.827Z,99.90
2019-03-19T01:41:49.123Z,99.90
2019-03-19T01:44:16.947Z,99.90
2019-03-19T01:46:44.887Z,99.90
2019-03-19T01:49:13.264Z,99.90
2019-03-19T01:51:42.235Z,99.90
2019-03-19T01:54:10.458Z,99.90
2019-03-19T01:56:38.351Z,99.90
2019-03-19T01:59:06.976Z,99.90
2019-03-19T02:01:35.079Z,99.90
2019-03-19T02:04:02.658Z,99.90
2019-03-19T02:06:30.395Z,99.90
2019-03-19T02:08:59.033Z,99.90
2019-03-19T02:11:28.044Z,99.90
2019-03-19T02:13:55.647Z,99.90
2019-03-19T02:16:23.521Z,99.90
2019-03-19T02:18:51.672Z,99.90
2019-03-19T02:21:19.564Z,99.90
2019-03-19T02:23:47.347Z,99.90
2019-03-19T02:26:16.664Z,99.90
2019-03-19T02:28:45.106Z,99.90
2019-03-19T02:31:12.662Z,99.90
2019-03-19T02:33:40.523Z,99.90
2019-03-19T02:36:08.601Z,99.90
2019-03-19T02:38:36.453Z,99.90
2019-03-19T02:41:04.299Z,99.90
2019-03-19T02:43:31.900Z,99.90
2019-03-19T02:45:59.761Z,99.90
2019-03-19T02:48:27.729Z,99.90
2019-03-19T02:50:55.909Z,99.90
2019-03-19T02:53:24.135Z,99.90
2019-03-19T02:55:51.976Z,99.90
2019-03-19T02:58:20.396Z,99.90
2019-03-19T03:00:48.275Z,99.90
2019-03-19T03:03:16.166Z,99.90
2019-03-19T03:05:43.641Z,99.90
2019-03-19T03:08:11.546Z,99.90
2019-03-19T03:10:39.888Z,99.90
2019-03-19T03:13:07.812Z,99.90
2019-03-19T03:15:35.625Z,99.90
2019-03-19T03:18:03.625Z,99.90
2019-03-19T03:20:32.051Z,99.90
2019-03-19T03:22:59.667Z,99.90
2019-03-19T03:25:27.547Z,99.90
2019-03-19T03:27:55.020Z,99.90
2019-03-19T03:30:23.945Z,99.90
2019-03-19T03:32:52.800Z,99.90
2019-03-19T03:35:21.049Z,99.90
2019-03-19T03:37:48.881Z,99.90
2019-03-19T03:40:16.656Z,99.90
2019-03-19T03:42:44.704Z,99.90
2019-03-19T03:45:13.453Z,99.90
2019-03-19T03:47:42.946Z,99.90
2019-03-19T03:50:10.559Z,99.90
2019-03-19T03:52:38.911Z,99.90
2019-03-19T03:55:07.076Z,99.90
2019-03-19T03:57:34.974Z,99.90
2019-03-19T04:00:02.820Z,99.90
2019-03-19T04:02:30.667Z,99.90
2019-03-19T04:04:58.227Z,99.90
2019-03-19T04:07:28.196Z,99.90
2019-03-19T04:09:58.116Z,99.90
2019-03-19T04:12:25.969Z,99.90
2019-03-19T04:14:54.219Z,99.90
2019-03-19T04:17:22.962Z,99.90
2019-03-19T04:19:50.486Z,99.90
2019-03-19T04:22:18.918Z,99.90
2019-03-19T04:24:47.606Z,99.90
2019-03-19T04:27:16.870Z,99.90
2019-03-19T04:29:44.719Z,99.90
2019-03-19T04:32:12.825Z,99.90
2019-03-19T04:34:40.706Z,99.90
2019-03-19T04:37:09.440Z,99.90
2019-03-19T04:39:37.395Z,99.90
2019-03-19T04:42:05.304Z,99.90
2019-03-19T04:44:33.274Z,99.90
2019-03-19T04:47:01.402Z,99.90
2019-03-19T04:49:29.239Z,99.90
2019-03-19T04:51:56.740Z,99.90
2019-03-19T04:54:25.119Z,99.90
2019-03-19T04:56:52.919Z,99.90
2019-03-19T04:59:23.333Z,99.90
2019-03-19T05:01:51.278Z,99.90
2019-03-19T05:04:19.088Z,99.90
2019-03-19T05:06:47.086Z,99.90
2019-03-19T05:09:15.327Z,99.90
2019-03-19T05:11:43.527Z,99.90
2019-03-19T05:14:11.155Z,99.90
2019-03-19T05:16:39.078Z,99.90
2019-03-19T05:19:07.554Z,99.90
2019-03-19T05:21:35.410Z,99.90
2019-03-19T05:24:02.903Z,99.90
2019-03-19T05:26:30.600Z,99.90
2019-03-19T05:28:58.402Z,99.90
2019-03-19T05:31:26.331Z,99.90
2019-03-19T05:33:54.206Z,99.90
2019-03-19T05:36:24.301Z,99.90
2019-03-19T05:38:52.928Z,99.90
2019-03-19T05:41:21.204Z,99.90
2019-03-19T05:43:48.696Z,99.90
2019-03-19T05:46:16.302Z,99.90
2019-03-19T05:48:44.599Z,99.90
2019-03-19T05:51:12.539Z,99.90
2019-03-19T05:53:40.009Z,99.90
2019-03-19T05:56:11.050Z,99.90
2019-03-19T05:58:38.622Z,99.90
2019-03-19T06:01:06.803Z,99.90
2019-03-19T06:03:34.758Z,99.90
2019-03-19T06:06:02.650Z,99.90
2019-03-19T06:08:30.234Z,99.90
2019-03-19T06:10:58.161Z,99.90
2019-03-19T06:13:27.247Z,99.90
2019-03-19T06:15:55.661Z,99.90
2019-03-19T06:18:34.287Z,99.90
2019-03-19T06:20:53.166Z,99.90
2019-03-19T06:23:21.001Z,99.90
2019-03-19T06:25:49.953Z,99.90
2019-03-19T06:28:17.538Z,99.90
2019-03-19T06:30:45.885Z,99.90
2019-03-19T06:33:13.970Z,99.90
2019-03-19T06:35:41.872Z,99.90
2019-03-19T06:38:09.555Z,99.90
2019-03-19T06:40:37.332Z,99.90
2019-03-19T06:43:05.015Z,99.90
2019-03-19T06:45:32.808Z,99.90
2019-03-19T06:48:00.524Z,99.90
2019-03-19T06:50:30.451Z,99.90
2019-03-19T06:52:58.897Z,99.90
2019-03-19T06:55:26.466Z,99.90
2019-03-19T06:57:55.899Z,99.90
2019-03-19T07:00:23.615Z,99.90
2019-03-19T07:02:51.997Z,99.90
2019-03-19T07:05:20.333Z,99.90
2019-03-19T07:07:51.309Z,99.90
2019-03-19T07:10:19.228Z,99.90
2019-03-19T07:12:47.305Z,99.90
2019-03-19T07:15:15.339Z,99.90
2019-03-19T07:17:43.436Z,99.90
2019-03-19T07:20:13.386Z,94.90
2019-03-19T07:22:40.994Z,83.00
2019-03-19T07:25:08.918Z,70.10
2019-03-19T07:27:36.727Z,60.00
2019-03-19T07:30:07.390Z,56.40
2019-03-19T07:32:35.695Z,53.50
2019-03-19T07:35:03.539Z,55.00
2019-03-19T07:37:32.050Z,49.10
2019-03-19T07:39:59.842Z,44.10
2019-03-19T07:42:27.915Z,43.20
2019-03-19T07:44:56.486Z,41.80
2019-03-19T07:47:24.335Z,37.70
2019-03-19T07:49:51.821Z,37.10
2019-03-19T07:52:20.227Z,35.60
2019-03-19T07:54:48.457Z,36.30
2019-03-19T07:57:16.644Z,35.10
2019-03-19T07:59:44.198Z,34.40
2019-03-19T08:02:14.495Z,35.20
2019-03-19T08:04:43.895Z,32.70
2019-03-19T08:07:11.811Z,33.10
2019-03-19T08:09:41.233Z,33.80
2019-03-19T08:12:10.167Z,34.00
2019-03-19T08:14:38.288Z,33.50
2019-03-19T08:17:06.796Z,31.30
2019-03-19T08:19:34.683Z,31.60
2019-03-19T08:22:02.289Z,30.70
2019-03-19T08:24:30.512Z,30.20
2019-03-19T08:26:58.129Z,29.60
2019-03-19T08:29:25.592Z,29.30
2019-03-19T08:31:54.927Z,29.70
2019-03-19T08:34:22.756Z,29.70
2019-03-19T08:36:50.831Z,30.00
2019-03-19T08:39:18.340Z,29.90
2019-03-19T08:41:46.650Z,29.60
2019-03-19T08:44:14.294Z,29.80
2019-03-19T08:46:43.728Z,30.20
2019-03-19T08:49:14.927Z,28.60
2019-03-19T08:51:53.135Z,28.30
2019-03-19T08:54:20.583Z,28.70
2019-03-19T08:56:49.222Z,28.50
2019-03-19T08:59:18.192Z,28.00
2019-03-19T09:01:47.866Z,27.50
2019-03-19T09:04:19.915Z,28.10
2019-03-19T09:06:50.107Z,28.40
2019-03-19T09:09:18.566Z,28.40
2019-03-19T09:11:46.238Z,27.40
2019-03-19T09:14:14.218Z,27.60
2019-03-19T09:16:41.726Z,28.60
2019-03-19T09:19:10.459Z,28.80
2019-03-19T09:21:38.379Z,28.00
2019-03-19T09:24:06.256Z,28.00
2019-03-19T09:26:33.746Z,28.00
2019-03-19T09:29:01.251Z,28.80
2019-03-19T09:31:29.019Z,28.20
2019-03-19T09:33:57.663Z,27.90
2019-03-19T09:36:25.963Z,26.70
2019-03-19T09:38:55.407Z,27.00
2019-03-19T09:41:24.868Z,26.10
2019-03-19T09:43:53.619Z,26.10
2019-03-19T09:46:21.545Z,26.50
2019-03-19T09:48:50.022Z,26.50
2019-03-19T09:51:18.155Z,25.70
2019-03-19T09:53:45.787Z,25.10
2019-03-19T09:56:14.526Z,25.40
2019-03-19T09:58:43.296Z,24.60
2019-03-19T10:01:11.090Z,24.80
2019-03-19T10:03:38.632Z,23.90
2019-03-19T10:06:13.988Z,23.70
2019-03-19T10:08:36.224Z,23.40
2019-03-19T10:11:04.368Z,23.50
2019-03-19T10:13:34.356Z,23.00
2019-03-19T10:16:01.929Z,21.30
2019-03-19T10:18:29.768Z,21.60
2019-03-19T10:20:57.597Z,22.40
2019-03-19T10:23:25.772Z,22.20
2019-03-19T10:25:53.924Z,21.20
2019-03-19T10:28:22.232Z,21.20
2019-03-19T10:30:50.855Z,21.40
2019-03-19T10:33:18.980Z,21.30
2019-03-19T10:35:47.132Z,20.80
2019-03-19T10:38:15.273Z,20.80
2019-03-19T10:40:42.827Z,20.90
2019-03-19T10:43:14.523Z,21.60
2019-03-19T10:45:42.302Z,22.30
2019-03-19T10:48:09.922Z,22.00
2019-03-19T10:50:39.863Z,21.60
2019-03-19T10:53:08.319Z,21.20
2019-03-19T10:55:36.237Z,21.20
2019-03-19T10:58:10.831Z,21.30
2019-03-19T11:00:34.150Z,22.70
2019-03-19T11:03:02.646Z,23.60
2019-03-19T11:05:32.130Z,22.50
2019-03-19T11:08:00.693Z,22.60
2019-03-19T11:10:28.521Z,22.30
2019-03-19T11:12:56.723Z,23.00
2019-03-19T11:15:24.996Z,23.00
2019-03-19T11:17:52.881Z,23.40
2019-03-19T11:20:20.667Z,23.80
2019-03-19T11:22:48.188Z,23.80
2019-03-19T11:25:16.999Z,23.50
2019-03-19T11:27:44.521Z,24.20
2019-03-19T11:30:14.942Z,24.40
2019-03-19T11:32:43.234Z,24.80
2019-03-19T11:35:12.345Z,24.70
2019-03-19T11:37:40.453Z,25.20
2019-03-19T11:40:07.986Z,25.80
2019-03-19T11:42:36.395Z,24.90
2019-03-19T11:45:05.564Z,23.30
2019-03-19T11:47:33.400Z,22.70
2019-03-19T11:50:01.129Z,23.00
2019-03-19T11:52:28.988Z,23.70
2019-03-19T11:54:58.352Z,23.10
2019-03-19T11:57:27.002Z,22.70
2019-03-19T11:59:55.295Z,22.90
2019-03-19T12:02:26.259Z,23.10
2019-03-19T12:04:52.984Z,22.80
2019-03-19T12:07:21.127Z,23.40
2019-03-19T12:09:48.684Z,24.70
2019-03-19T12:12:17.092Z,24.80
2019-03-19T12:14:47.473Z,25.30
2019-03-19T12:17:15.615Z,25.20
2019-03-19T12:19:43.374Z,25.10
2019-03-19T12:22:12.146Z,26.90
2019-03-19T12:24:42.627Z,27.90
2019-03-19T12:27:10.967Z,29.20
2019-03-19T12:29:38.870Z,28.30
2019-03-19T12:32:06.819Z,26.50
2019-03-19T12:34:34.448Z,26.00
2019-03-19T12:37:02.223Z,25.40
2019-03-19T12:39:30.128Z,25.40
2019-03-19T12:41:58.012Z,24.70
2019-03-19T12:44:25.594Z,24.50
2019-03-19T12:46:53.690Z,24.20
2019-03-19T12:49:21.231Z,23.90
2019-03-19T12:51:48.807Z,23.70
2019-03-19T12:54:16.919Z,23.40
2019-03-19T12:56:44.483Z,23.00
2019-03-19T12:59:20.158Z,23.30
2019-03-19T13:01:41.762Z,24.30
2019-03-19T13:04:10.076Z,24.20
2019-03-19T13:06:37.659Z,24.00
2019-03-19T13:09:06.891Z,24.60
2019-03-19T13:11:34.814Z,24.90
2019-03-19T13:14:02.612Z,24.60
2019-03-19T13:16:30.462Z,25.10
2019-03-19T13:18:58.628Z,25.40
2019-03-19T13:21:26.449Z,25.60
2019-03-19T13:23:53.933Z,25.50
2019-03-19T13:26:21.511Z,25.90
2019-03-19T13:28:49.611Z,26.70
2019-03-19T13:31:17.090Z,26.50
2019-03-19T13:33:45.307Z,26.30
2019-03-19T13:36:13.458Z,26.70
2019-03-19T13:38:40.971Z,27.40
2019-03-19T13:41:09.041Z,27.50
2019-03-19T13:43:36.956Z,27.90
2019-03-19T13:46:04.414Z,28.00
2019-03-19T13:48:32.767Z,27.60
2019-03-19T13:51:00.566Z,27.80
2019-03-19T13:53:28.431Z,27.80
2019-03-19T13:55:55.973Z,28.00
2019-03-19T13:58:23.629Z,27.80
2019-03-19T14:00:55.598Z,27.40
2019-03-19T14:03:20.624Z,27.10
2019-03-19T14:05:48.596Z,26.60
2019-03-19T14:08:18.001Z,27.40
2019-03-19T14:10:46.282Z,27.80
2019-03-19T14:13:13.756Z,28.30
2019-03-19T14:15:41.286Z,29.10
2019-03-19T14:18:09.075Z,29.40
2019-03-19T14:20:36.658Z,30.00
2019-03-19T14:23:04.658Z,30.60
2019-03-19T14:25:32.454Z,30.70
2019-03-19T14:27:59.891Z,30.40
2019-03-19T14:30:27.678Z,29.40
2019-03-19T14:32:55.135Z,29.20
2019-03-19T14:35:22.778Z,29.10
2019-03-19T14:37:50.655Z,29.40
2019-03-19T14:40:18.148Z,30.00
2019-03-19T14:42:46.059Z,30.70
2019-03-19T14:45:14.066Z,31.00
2019-03-19T14:47:41.671Z,30.00
2019-03-19T14:50:10.471Z,29.60
2019-03-19T14:52:38.074Z,29.40
2019-03-19T14:55:05.622Z,29.60
2019-03-19T14:57:33.829Z,30.40
2019-03-19T15:00:01.416Z,30.80
2019-03-19T15:02:29.030Z,31.60
2019-03-19T15:04:57.223Z,32.20
2019-03-19T15:07:24.728Z,32.20
2019-03-19T15:09:53.167Z,31.90
2019-03-19T15:12:20.789Z,31.90
2019-03-19T15:14:48.399Z,31.50
2019-03-19T15:17:15.931Z,30.70
2019-03-19T15:19:43.510Z,30.50
2019-03-19T15:22:11.112Z,30.70
2019-03-19T15:24:39.002Z,31.40
2019-03-19T15:27:07.767Z,31.50
2019-03-19T15:29:36.590Z,31.70
2019-03-19T15:32:05.499Z,32.00
2019-03-19T15:34:33.078Z,31.40
2019-03-19T15:37:01.234Z,30.90
2019-03-19T15:39:29.128Z,31.10
2019-03-19T15:41:56.715Z,31.10
2019-03-19T15:44:24.502Z,31.90
2019-03-19T15:46:52.086Z,31.70
2019-03-19T15:49:20.216Z,30.50
2019-03-19T15:51:48.021Z,30.10
2019-03-19T15:54:15.974Z,30.20
2019-03-19T15:56:43.542Z,29.90
2019-03-19T15:59:11.166Z,30.20
2019-03-19T16:01:40.679Z,30.90
2019-03-19T16:04:08.371Z,31.70
2019-03-19T16:06:36.435Z,32.40
2019-03-19T16:09:06.943Z,33.10
2019-03-19T16:11:34.435Z,33.50
2019-03-19T16:14:02.169Z,34.00
2019-03-19T16:16:30.066Z,34.60
2019-03-19T16:18:57.599Z,34.20
2019-03-19T16:21:25.684Z,33.60
2019-03-19T16:23:54.093Z,33.50
2019-03-19T16:26:23.287Z,34.00
2019-03-19T16:28:51.545Z,34.50
2019-03-19T16:31:19.793Z,35.00
2019-03-19T16:33:47.730Z,34.50
2019-03-19T16:36:15.369Z,34.00
2019-03-19T16:38:42.947Z,33.40
2019-03-19T16:41:10.411Z,33.00
2019-03-19T16:43:38.191Z,33.00
2019-03-19T16:46:06.067Z,33.10
2019-03-19T16:48:34.011Z,33.40
2019-03-19T16:51:02.366Z,33.60
2019-03-19T16:53:33.431Z,33.50
2019-03-19T16:56:01.218Z,33.40
2019-03-19T16:58:29.885Z,33.60
2019-03-19T17:00:57.746Z,34.20
2019-03-19T17:03:27.169Z,34.60
2019-03-19T17:05:59.538Z,34.30
2019-03-19T17:08:27.065Z,34.50
2019-03-19T17:10:54.655Z,34.40
2019-03-19T17:13:24.988Z,35.10
2019-03-19T17:15:52.584Z,35.70
2019-03-19T17:18:21.995Z,36.40
2019-03-19T17:20:51.958Z,36.50
2019-03-19T17:23:20.335Z,36.60
2019-03-19T17:25:48.443Z,37.00
2019-03-19T17:28:22.641Z,37.10
2019-03-19T17:30:49.036Z,37.70
2019-03-19T17:33:16.819Z,38.20
2019-03-19T17:35:45.437Z,38.70
2019-03-19T17:38:13.035Z,39.00
2019-03-19T17:40:41.825Z,39.80
2019-03-19T17:43:09.810Z,40.70
2019-03-19T17:45:37.352Z,41.20
2019-03-19T17:48:15.672Z,40.50
2019-03-19T17:50:36.594Z,40.80
2019-03-19T17:53:06.086Z,40.50
2019-03-19T17:55:33.626Z,41.40
2019-03-19T17:58:02.831Z,41.30
2019-03-19T18:00:30.676Z,41.90
2019-03-19T18:02:58.539Z,41.80
2019-03-19T18:05:26.929Z,42.50
2019-03-19T18:07:56.316Z,42.10
2019-03-19T18:10:24.167Z,42.30
2019-03-19T18:12:52.482Z,42.20
2019-03-19T18:15:22.006Z,42.90
2019-03-19T18:17:49.572Z,42.40
2019-03-19T18:20:17.350Z,43.20
2019-03-19T18:22:44.845Z,43.70
2019-03-19T18:25:12.363Z,44.00
2019-03-19T18:27:40.116Z,45.00
2019-03-19T18:30:11.016Z,44.60
2019-03-19T18:32:41.762Z,45.60
2019-03-19T18:35:09.357Z,47.30
2019-03-19T18:37:38.726Z,49.00
2019-03-19T18:40:07.399Z,50.00
2019-03-19T18:42:35.329Z,49.80
2019-03-19T18:45:03.199Z,49.80
2019-03-19T18:48:11.695Z,49.20
2019-03-19T18:50:39.652Z,49.60
2019-03-19T18:53:08.036Z,51.10
2019-03-19T18:55:36.408Z,51.90
2019-03-19T18:58:04.323Z,52.90
2019-03-19T19:00:32.833Z,53.30
2019-03-19T19:03:00.334Z,53.20
2019-03-19T19:05:27.922Z,53.70
2019-03-19T19:07:55.771Z,54.10
2019-03-19T19:10:23.568Z,55.40
2019-03-19T19:12:51.159Z,55.90
2019-03-19T19:15:18.842Z,56.70
2019-03-19T19:17:47.198Z,57.30
2019-03-19T19:20:14.851Z,57.90
2019-03-19T19:22:44.600Z,58.30
2019-03-19T19:25:12.975Z,59.10
2019-03-19T19:27:40.750Z,60.40
2019-03-19T19:30:11.283Z,60.40
2019-03-19T19:32:38.927Z,62.20
2019-03-19T19:35:06.774Z,62.70
2019-03-19T19:37:34.922Z,62.20
2019-03-19T19:40:02.395Z,61.80
2019-03-19T19:42:30.256Z,61.70
2019-03-19T19:44:59.028Z,64.40
2019-03-19T19:47:26.885Z,64.00
2019-03-19T19:49:54.752Z,64.30
2019-03-19T19:52:22.583Z,64.10
2019-03-19T19:54:50.502Z,63.10
2019-03-19T19:57:18.378Z,64.20
2019-03-19T19:59:46.146Z,64.20
2019-03-19T20:02:14.027Z,65.10
2019-03-19T20:04:41.491Z,66.60
2019-03-19T20:07:09.376Z,68.60
2019-03-19T20:09:37.211Z,70.50
2019-03-19T20:12:06.256Z,69.00
2019-03-19T20:14:34.295Z,67.40
2019-03-19T20:17:02.173Z,66.80
2019-03-19T20:19:29.651Z,65.90
2019-03-19T20:21:57.635Z,66.50
2019-03-19T20:24:25.444Z,66.00
2019-03-19T20:26:53.311Z,66.10
2019-03-19T20:29:21.203Z,67.20
2019-03-19T20:31:48.976Z,68.00
2019-03-19T20:34:16.820Z,69.20
2019-03-19T20:36:44.857Z,70.30
2019-03-19T20:39:15.848Z,70.40
2019-03-19T20:41:43.713Z,70.60
2019-03-19T20:44:11.240Z,71.60
2019-03-19T20:46:39.530Z,69.50
2019-03-19T20:49:07.460Z,68.70
2019-03-19T20:51:34.968Z,68.40
2019-03-19T20:54:04.819Z,70.50
2019-03-19T20:56:32.123Z,70.90
2019-03-19T20:58:59.615Z,72.10
2019-03-19T21:01:27.474Z,74.90
2019-03-19T21:03:55.298Z,78.90
2019-03-19T21:06:22.963Z,79.00
2019-03-19T21:08:50.783Z,77.00
2019-03-19T21:11:18.650Z,76.70
2019-03-19T21:13:46.165Z,75.40
2019-03-19T21:16:13.798Z,76.50
2019-03-19T21:18:41.391Z,75.90
2019-03-19T21:21:08.914Z,75.90
2019-03-19T21:23:36.787Z,75.20
2019-03-19T21:26:04.367Z,75.70
2019-03-19T21:28:31.827Z,77.10
2019-03-19T21:30:59.931Z,77.00
2019-03-19T21:33:27.439Z,77.70
2019-03-19T21:35:55.130Z,77.70
2019-03-19T21:40:56.246Z,78.60
2019-03-19T21:43:24.050Z,80.00
2019-03-19T21:45:51.898Z,79.90
2019-03-19T21:48:19.438Z,79.00
2019-03-19T21:50:46.914Z,79.50
2019-03-19T21:53:14.695Z,80.60
2019-03-19T21:55:42.331Z,79.20
2019-03-19T21:58:10.007Z,78.80
2019-03-19T22:00:37.903Z,79.40
2019-03-19T22:03:05.527Z,80.30
2019-03-19T22:05:34.057Z,80.90
2019-03-19T22:08:01.974Z,81.00
2019-03-19T22:10:29.815Z,81.00
2019-03-19T22:12:57.846Z,81.50
2019-03-19T22:15:25.450Z,81.40
2019-03-19T22:17:53.325Z,81.60
2019-03-19T22:20:21.199Z,80.80
2019-03-19T22:22:49.115Z,82.50
2019-03-19T22:25:16.931Z,82.30
2019-03-19T22:27:44.760Z,82.00
2019-03-19T22:30:13.803Z,82.00
2019-03-19T22:32:41.826Z,82.20
2019-03-19T22:35:09.952Z,82.80
2019-03-19T22:37:37.826Z,82.30
2019-03-19T22:40:07.327Z,80.60
2019-03-19T22:42:35.127Z,81.30
2019-03-19T22:45:02.763Z,81.80
2019-03-19T22:47:30.823Z,81.80
2019-03-19T22:49:58.578Z,83.30
2019-03-19T22:52:26.353Z,89.00
2019-03-19T22:54:53.902Z,90.60
2019-03-19T22:57:21.705Z,90.10
2019-03-19T22:59:49.304Z,86.50
2019-03-19T23:02:16.957Z,85.40
2019-03-19T23:04:44.836Z,85.20
2019-03-19T23:07:12.621Z,84.50
2019-03-19T23:09:40.123Z,85.90
2019-03-19T23:12:08.164Z,86.20
2019-03-19T23:14:36.229Z,85.60
2019-03-19T23:17:04.055Z,85.60
2019-03-19T23:19:31.915Z,86.20
2019-03-19T23:21:59.459Z,86.70
2019-03-19T23:24:27.323Z,86.50
2019-03-19T23:26:54.853Z,86.30
2019-03-19T23:29:22.806Z,85.60
2019-03-19T23:31:50.698Z,86.50
2019-03-19T23:34:18.451Z,86.30
2019-03-19T23:36:46.535Z,91.70
2019-03-19T23:39:14.603Z,93.30
2019-03-19T23:41:42.818Z,93.90
2019-03-19T23:44:10.743Z,93.60
2019-03-19T23:46:38.779Z,92.30
2019-03-19T23:49:06.371Z,92.30
2019-03-19T23:51:34.134Z,92.00
2019-03-19T23:54:02.650Z,92.50
2019-03-19T23:56:30.412Z,93.30
2019-03-19T23:58:58.724Z,93.40
